sensor_id;sensor_type;location;lat;lon;timestamp;pressure;altitude;pressure_sealevel;temperature;humidity
78573;BME280;67862;0.000;0.000;2023-03-24T00:01:09;98937.19;;;21.61;58.57
78573;BME280;67862;0.000;0.000;2023-03-24T00:03:34;98937.72;;;21.63;59.07
78573;BME280;67862;0.000;0.000;2023-03-24T00:06:01;98938.28;;;21.60;58.67
78573;BME280;67862;0.000;0.000;2023-03-24T00:08:28;98930.91;;;21.61;59.09
78573;BME280;67862;0.000;0.000;2023-03-24T00:10:58;98936.66;;;21.59;58.91
78573;BME280;67862;0.000;0.000;2023-03-24T00:13:25;98933.63;;;21.61;58.54
78573;BME280;67862;0.000;0.000;2023-03-24T00:15:50;98928.19;;;21.61;58.58
78573;BME280;67862;0.000;0.000;2023-03-24T00:18:16;98923.53;;;21.61;58.85
78573;BME280;67862;0.000;0.000;2023-03-24T00:20:43;98932.00;;;21.60;58.76
78573;BME280;67862;0.000;0.000;2023-03-24T00:23:09;98926.78;;;21.63;58.93
78573;BME280;67862;0.000;0.000;2023-03-24T00:25:36;98929.81;;;21.62;58.66
78573;BME280;67862;0.000;0.000;2023-03-24T00:28:04;98928.47;;;21.59;58.95
78573;BME280;67862;0.000;0.000;2023-03-24T00:30:31;98926.06;;;21.58;58.19
78573;BME280;67862;0.000;0.000;2023-03-24T00:32:57;98923.31;;;21.58;58.68
78573;BME280;67862;0.000;0.000;2023-03-24T00:35:23;98917.84;;;21.58;58.19
78573;BME280;67862;0.000;0.000;2023-03-24T00:37:48;98921.19;;;21.55;58.42
78573;BME280;67862;0.000;0.000;2023-03-24T00:40:16;98915.72;;;21.55;58.02
78573;BME280;67862;0.000;0.000;2023-03-24T00:42:43;98914.63;;;21.56;57.99
78573;BME280;67862;0.000;0.000;2023-03-24T00:45:18;98909.16;;;21.56;58.24
78573;BME280;67862;0.000;0.000;2023-03-24T00:47:44;98900.44;;;21.54;58.21
78573;BME280;67862;0.000;0.000;2023-03-24T00:50:14;98895.00;;;21.54;58.37
78573;BME280;67862;0.000;0.000;2023-03-24T00:52:40;98887.59;;;21.54;58.31
78573;BME280;67862;0.000;0.000;2023-03-24T00:55:09;98888.72;;;21.53;57.26
78573;BME280;67862;0.000;0.000;2023-03-24T00:57:37;98875.34;;;21.52;57.69
78573;BME280;67862;0.000;0.000;2023-03-24T01:00:05;98878.59;;;21.54;58.73
78573;BME280;67862;0.000;0.000;2023-03-24T01:02:38;98870.41;;;21.54;58.03
78573;BME280;67862;0.000;0.000;2023-03-24T01:05:03;98877.78;;;21.53;57.74
78573;BME280;67862;0.000;0.000;2023-03-24T01:07:30;98873.94;;;21.54;58.04
78573;BME280;67862;0.000;0.000;2023-03-24T01:09:56;98876.38;;;21.56;58.06
78573;BME280;67862;0.000;0.000;2023-03-24T01:12:29;98872.03;;;21.55;57.90
78573;BME280;67862;0.000;0.000;2023-03-24T01:14:55;98861.91;;;21.55;57.91
78573;BME280;67862;0.000;0.000;2023-03-24T01:17:21;98869.00;;;21.56;57.84
78573;BME280;67862;0.000;0.000;2023-03-24T01:19:50;98863.22;;;21.58;58.29
78573;BME280;67862;0.000;0.000;2023-03-24T01:22:15;98866.25;;;21.56;58.39
78573;BME280;67862;0.000;0.000;2023-03-24T01:24:40;98862.22;;;21.54;58.07
78573;BME280;67862;0.000;0.000;2023-03-24T01:27:07;98854.53;;;21.56;58.37
78573;BME280;67862;0.000;0.000;2023-03-24T01:29:32;98860.00;;;21.56;58.13
78573;BME280;67862;0.000;0.000;2023-03-24T01:31:58;98852.59;;;21.56;58.12
78573;BME280;67862;0.000;0.000;2023-03-24T01:34:23;98849.06;;;21.56;57.57
78573;BME280;67862;0.000;0.000;2023-03-24T01:36:49;98843.59;;;21.56;58.02
78573;BME280;67862;0.000;0.000;2023-03-24T01:39:14;98841.97;;;21.55;57.51
78573;BME280;67862;0.000;0.000;2023-03-24T01:41:40;98842.78;;;21.55;58.25
78573;BME280;67862;0.000;0.000;2023-03-24T01:46:49;98833.78;;;21.55;57.69
78573;BME280;67862;0.000;0.000;2023-03-24T01:49:15;98831.56;;;21.57;58.10
78573;BME280;67862;0.000;0.000;2023-03-24T01:51:45;98831.56;;;21.57;57.63
78573;BME280;67862;0.000;0.000;2023-03-24T01:57:01;98828.84;;;21.57;57.36
78573;BME280;67862;0.000;0.000;2023-03-24T01:59:28;98824.47;;;21.56;57.69
78573;BME280;67862;0.000;0.000;2023-03-24T02:01:54;98823.16;;;21.53;57.77
78573;BME280;67862;0.000;0.000;2023-03-24T02:04:30;98826.72;;;21.54;57.25
78573;BME280;67862;0.000;0.000;2023-03-24T02:07:00;98823.97;;;21.54;57.62
78573;BME280;67862;0.000;0.000;2023-03-24T02:09:29;98817.41;;;21.55;57.46
78573;BME280;67862;0.000;0.000;2023-03-24T02:11:54;98814.16;;;21.53;57.48
78573;BME280;67862;0.000;0.000;2023-03-24T02:14:19;98811.44;;;21.53;57.47
78573;BME280;67862;0.000;0.000;2023-03-24T02:19:27;98802.94;;;21.54;57.54
78573;BME280;67862;0.000;0.000;2023-03-24T02:47:29;98811.56;;;21.75;57.47
78573;BME280;67862;0.000;0.000;2023-03-24T02:52:51;98809.22;;;21.68;58.16
78573;BME280;67862;0.000;0.000;2023-03-24T02:55:31;98804.56;;;21.69;59.01
78573;BME280;67862;0.000;0.000;2023-03-24T03:00:27;98798.22;;;21.74;58.84
78573;BME280;67862;0.000;0.000;2023-03-24T03:02:56;98800.84;;;21.79;59.04
78573;BME280;67862;0.000;0.000;2023-03-24T03:05:28;98806.00;;;21.80;59.06
78573;BME280;67862;0.000;0.000;2023-03-24T03:07:57;98799.72;;;21.80;59.12
78573;BME280;67862;0.000;0.000;2023-03-24T03:10:24;98796.72;;;21.81;58.97
78573;BME280;67862;0.000;0.000;2023-03-24T03:12:53;98798.53;;;21.86;58.88
78573;BME280;67862;0.000;0.000;2023-03-24T03:15:22;98793.88;;;21.86;58.86
78573;BME280;67862;0.000;0.000;2023-03-24T03:17:50;98799.84;;;21.88;59.12
78573;BME280;67862;0.000;0.000;2023-03-24T03:20:18;98798.44;;;21.91;58.92
78573;BME280;67862;0.000;0.000;2023-03-24T03:22:49;98794.88;;;21.90;58.98
78573;BME280;67862;0.000;0.000;2023-03-24T03:25:17;98785.28;;;21.93;58.61
78573;BME280;67862;0.000;0.000;2023-03-24T03:27:47;98778.19;;;21.92;58.58
78573;BME280;67862;0.000;0.000;2023-03-24T03:33:02;98774.53;;;21.96;58.54
78573;BME280;67862;0.000;0.000;2023-03-24T03:35:30;98776.66;;;21.99;58.44
78573;BME280;67862;0.000;0.000;2023-03-24T03:38:05;98775.25;;;22.02;58.65
78573;BME280;67862;0.000;0.000;2023-03-24T03:40:36;98784.25;;;22.03;58.01
78573;BME280;67862;0.000;0.000;2023-03-24T03:43:04;98785.28;;;22.07;58.44
78573;BME280;67862;0.000;0.000;2023-03-24T03:45:30;98778.72;;;22.08;58.44
78573;BME280;67862;0.000;0.000;2023-03-24T03:47:57;98773.25;;;22.08;58.63
78573;BME280;67862;0.000;0.000;2023-03-24T03:50:22;98780.63;;;22.07;58.14
78573;BME280;67862;0.000;0.000;2023-03-24T03:52:47;98774.84;;;22.09;58.53
78573;BME280;67862;0.000;0.000;2023-03-24T03:55:14;98773.25;;;22.08;58.53
78573;BME280;67862;0.000;0.000;2023-03-24T03:57:39;98769.63;;;22.12;58.42
78573;BME280;67862;0.000;0.000;2023-03-24T04:00:06;98770.91;;;22.15;58.83
78573;BME280;67862;0.000;0.000;2023-03-24T04:07:44;98766.75;;;22.17;58.40
78573;BME280;67862;0.000;0.000;2023-03-24T04:10:24;98764.34;;;22.16;58.62
78573;BME280;67862;0.000;0.000;2023-03-24T04:15:45;98757.44;;;22.18;58.93
78573;BME280;67862;0.000;0.000;2023-03-24T04:21:02;98753.31;;;22.21;59.37
78573;BME280;67862;0.000;0.000;2023-03-24T04:23:42;98753.00;;;22.22;59.29
78573;BME280;67862;0.000;0.000;2023-03-24T04:26:15;98758.47;;;22.22;59.87
78573;BME280;67862;0.000;0.000;2023-03-24T04:31:17;98760.25;;;22.27;59.87
78573;BME280;67862;0.000;0.000;2023-03-24T04:34:32;98758.66;;;22.26;59.56
78573;BME280;67862;0.000;0.000;2023-03-24T04:36:44;98755.91;;;22.26;59.82
78573;BME280;67862;0.000;0.000;2023-03-24T04:39:18;98761.88;;;22.28;59.66
78573;BME280;67862;0.000;0.000;2023-03-24T04:41:50;98759.97;;;22.28;59.67
78573;BME280;67862;0.000;0.000;2023-03-24T04:44:16;98757.53;;;22.27;59.68
78573;BME280;67862;0.000;0.000;2023-03-24T04:46:49;98761.88;;;22.28;59.52
78573;BME280;67862;0.000;0.000;2023-03-24T04:49:14;98764.13;;;22.26;59.56
78573;BME280;67862;0.000;0.000;2023-03-24T04:51:41;98762.50;;;22.25;59.29
78573;BME280;67862;0.000;0.000;2023-03-24T04:54:07;98762.50;;;22.25;59.62
78573;BME280;67862;0.000;0.000;2023-03-24T04:56:49;98764.44;;;22.24;59.20
78573;BME280;67862;0.000;0.000;2023-03-24T04:59:16;98774.88;;;22.22;59.34
78573;BME280;67862;0.000;0.000;2023-03-24T05:01:42;98770.00;;;22.19;59.20
78573;BME280;67862;0.000;0.000;2023-03-24T05:04:14;98775.38;;;22.24;59.61
78573;BME280;67862;0.000;0.000;2023-03-24T05:06:40;98769.41;;;22.22;59.63
78573;BME280;67862;0.000;0.000;2023-03-24T05:09:06;98775.19;;;22.21;59.52
78573;BME280;67862;0.000;0.000;2023-03-24T05:11:31;98770.22;;;22.23;59.23
78573;BME280;67862;0.000;0.000;2023-03-24T05:13:56;98773.75;;;22.23;59.17
78573;BME280;67862;0.000;0.000;2023-03-24T05:16:22;98772.44;;;22.21;59.24
78573;BME280;67862;0.000;0.000;2023-03-24T05:18:47;98765.06;;;22.21;59.35
78573;BME280;67862;0.000;0.000;2023-03-24T05:21:13;98762.31;;;22.21;59.35
78573;BME280;67862;0.000;0.000;2023-03-24T05:23:38;98766.97;;;22.21;59.22
78573;BME280;67862;0.000;0.000;2023-03-24T05:26:04;98780.03;;;22.24;59.08
78573;BME280;67862;0.000;0.000;2023-03-24T05:28:29;98778.41;;;22.23;59.46
78573;BME280;67862;0.000;0.000;2023-03-24T05:30:55;98786.63;;;22.23;59.62
78573;BME280;67862;0.000;0.000;2023-03-24T05:33:20;98790.47;;;22.22;59.39
78573;BME280;67862;0.000;0.000;2023-03-24T05:35:46;98796.44;;;22.24;59.13
78573;BME280;67862;0.000;0.000;2023-03-24T05:38:11;98794.50;;;22.24;59.42
78573;BME280;67862;0.000;0.000;2023-03-24T05:40:37;98785.81;;;22.22;59.46
78573;BME280;67862;0.000;0.000;2023-03-24T05:43:02;98793.69;;;22.24;60.08
78573;BME280;67862;0.000;0.000;2023-03-24T05:45:28;98801.78;;;22.29;60.33
78573;BME280;67862;0.000;0.000;2023-03-24T05:47:54;98800.97;;;22.28;60.47
78573;BME280;67862;0.000;0.000;2023-03-24T05:50:19;98789.75;;;22.30;60.11
78573;BME280;67862;0.000;0.000;2023-03-24T05:52:45;98799.34;;;22.27;59.99
78573;BME280;67862;0.000;0.000;2023-03-24T05:55:10;98801.78;;;22.29;60.12
78573;BME280;67862;0.000;0.000;2023-03-24T05:57:36;98806.44;;;22.28;60.38
78573;BME280;67862;0.000;0.000;2023-03-24T06:00:02;98802.41;;;22.26;59.96
78573;BME280;67862;0.000;0.000;2023-03-24T06:02:31;98800.97;;;22.28;60.28
78573;BME280;67862;0.000;0.000;2023-03-24T06:04:58;98799.66;;;22.26;60.09
78573;BME280;67862;0.000;0.000;2023-03-24T06:07:25;98805.94;;;22.26;59.92
78573;BME280;67862;0.000;0.000;2023-03-24T06:09:51;98803.50;;;22.25;59.74
78573;BME280;67862;0.000;0.000;2023-03-24T06:12:17;98799.66;;;22.26;59.61
78573;BME280;67862;0.000;0.000;2023-03-24T06:14:42;98804.31;;;22.25;59.53
78573;BME280;67862;0.000;0.000;2023-03-24T06:17:07;98805.63;;;22.28;59.75
78573;BME280;67862;0.000;0.000;2023-03-24T06:19:33;98809.47;;;22.27;59.68
78573;BME280;67862;0.000;0.000;2023-03-24T06:21:59;98811.72;;;22.25;59.60
78573;BME280;67862;0.000;0.000;2023-03-24T06:24:26;98802.41;;;22.26;59.43
78573;BME280;67862;0.000;0.000;2023-03-24T06:26:52;98805.13;;;22.26;59.34
78573;BME280;67862;0.000;0.000;2023-03-24T06:29:17;98802.41;;;22.26;59.54
78573;BME280;67862;0.000;0.000;2023-03-24T06:31:43;98804.31;;;22.25;59.06
78573;BME280;67862;0.000;0.000;2023-03-24T06:34:09;98803.50;;;22.25;59.42
78573;BME280;67862;0.000;0.000;2023-03-24T06:36:34;98793.06;;;22.27;59.75
78573;BME280;67862;0.000;0.000;2023-03-24T06:39:00;98795.31;;;22.25;59.69
78573;BME280;67862;0.000;0.000;2023-03-24T06:41:26;98804.00;;;22.27;59.57
78573;BME280;67862;0.000;0.000;2023-03-24T06:43:52;98810.59;;;22.26;59.55
78573;BME280;67862;0.000;0.000;2023-03-24T06:46:17;98808.69;;;22.26;59.25
78573;BME280;67862;0.000;0.000;2023-03-24T06:48:42;98809.47;;;22.27;59.41
78573;BME280;67862;0.000;0.000;2023-03-24T06:51:08;98805.94;;;22.26;59.71
78573;BME280;67862;0.000;0.000;2023-03-24T06:53:34;98814.94;;;22.27;59.51
78573;BME280;67862;0.000;0.000;2023-03-24T06:55:59;98813.84;;;22.28;59.52
78573;BME280;67862;0.000;0.000;2023-03-24T06:58:25;98816.69;;;22.23;60.10
78573;BME280;67862;0.000;0.000;2023-03-24T07:00:50;98819.13;;;22.24;59.80
78573;BME280;67862;0.000;0.000;2023-03-24T07:03:16;98816.69;;;22.23;59.49
78573;BME280;67862;0.000;0.000;2023-03-24T07:05:42;98817.81;;;22.22;59.91
78573;BME280;67862;0.000;0.000;2023-03-24T07:08:09;98817.50;;;22.23;60.07
78573;BME280;67862;0.000;0.000;2023-03-24T07:10:36;98804.94;;;22.22;60.09
78573;BME280;67862;0.000;0.000;2023-03-24T07:13:04;98807.69;;;22.22;60.30
78573;BME280;67862;0.000;0.000;2023-03-24T07:15:29;98808.00;;;22.21;60.26
78573;BME280;67862;0.000;0.000;2023-03-24T07:17:54;98814.75;;;22.23;60.26
78573;BME280;67862;0.000;0.000;2023-03-24T07:20:20;98813.16;;;22.22;60.65
78573;BME280;67862;0.000;0.000;2023-03-24T07:22:46;98808.50;;;22.23;60.62
78573;BME280;67862;0.000;0.000;2023-03-24T07:25:11;98814.47;;;22.25;60.83
78573;BME280;67862;0.000;0.000;2023-03-24T07:27:38;98804.00;;;22.27;60.81
78573;BME280;67862;0.000;0.000;2023-03-24T07:30:04;98804.00;;;22.27;61.01
78573;BME280;67862;0.000;0.000;2023-03-24T07:32:30;98804.22;;;22.31;60.86
78573;BME280;67862;0.000;0.000;2023-03-24T07:34:58;98797.16;;;22.30;60.90
78573;BME280;67862;0.000;0.000;2023-03-24T07:37:24;98798.03;;;22.39;60.63
78573;BME280;67862;0.000;0.000;2023-03-24T07:39:49;98796.72;;;22.36;60.21
78573;BME280;67862;0.000;0.000;2023-03-24T07:42:15;98790.25;;;22.32;60.02
78573;BME280;67862;0.000;0.000;2023-03-24T07:44:40;98787.28;;;22.28;59.98
78573;BME280;67862;0.000;0.000;2023-03-24T07:47:06;98780.13;;;22.33;60.06
78573;BME280;67862;0.000;0.000;2023-03-24T07:49:31;98781.53;;;22.03;58.54
78573;BME280;67862;0.000;0.000;2023-03-24T07:51:56;98779.41;;;21.86;57.14
78573;BME280;67862;0.000;0.000;2023-03-24T07:54:23;98775.63;;;21.68;56.30
78573;BME280;67862;0.000;0.000;2023-03-24T07:56:48;98765.69;;;21.45;53.92
78573;BME280;67862;0.000;0.000;2023-03-24T07:59:14;98766.75;;;21.30;53.59
78573;BME280;67862;0.000;0.000;2023-03-24T08:01:41;98769.31;;;21.21;52.54
78573;BME280;67862;0.000;0.000;2023-03-24T08:04:06;98763.22;;;21.29;51.88
78573;BME280;67862;0.000;0.000;2023-03-24T08:06:33;98763.66;;;21.36;52.63
78573;BME280;67862;0.000;0.000;2023-03-24T08:08:59;98766.78;;;21.11;50.82
78573;BME280;67862;0.000;0.000;2023-03-24T08:11:24;98762.75;;;21.22;50.71
78573;BME280;67862;0.000;0.000;2023-03-24T08:13:50;98769.31;;;21.40;51.69
78573;BME280;67862;0.000;0.000;2023-03-24T08:16:15;98763.16;;;21.48;52.22
78573;BME280;67862;0.000;0.000;2023-03-24T08:18:40;98767.50;;;21.49;51.58
78573;BME280;67862;0.000;0.000;2023-03-24T08:21:06;98758.00;;;21.33;50.50
78573;BME280;67862;0.000;0.000;2023-03-24T08:23:31;98758.09;;;21.41;51.10
78573;BME280;67862;0.000;0.000;2023-03-24T08:25:56;98751.00;;;21.40;50.08
78573;BME280;67862;0.000;0.000;2023-03-24T08:28:22;98749.69;;;21.52;51.11
78573;BME280;67862;0.000;0.000;2023-03-24T08:30:47;98751.94;;;21.50;50.68
78573;BME280;67862;0.000;0.000;2023-03-24T08:33:13;98743.75;;;21.17;48.04
78573;BME280;67862;0.000;0.000;2023-03-24T08:35:39;98741.84;;;21.18;49.43
78573;BME280;67862;0.000;0.000;2023-03-24T08:38:10;98746.56;;;21.12;49.10
78573;BME280;67862;0.000;0.000;2023-03-24T08:40:37;98735.31;;;21.32;48.99
78573;BME280;67862;0.000;0.000;2023-03-24T08:43:03;98731.41;;;21.20;48.23
78573;BME280;67862;0.000;0.000;2023-03-24T08:45:30;98733.31;;;21.05;47.11
78573;BME280;67862;0.000;0.000;2023-03-24T08:47:56;98724.53;;;21.08;47.30
78573;BME280;67862;0.000;0.000;2023-03-24T08:50:23;98723.72;;;21.08;47.99
78573;BME280;67862;0.000;0.000;2023-03-24T08:52:52;98730.47;;;20.97;47.64
78573;BME280;67862;0.000;0.000;2023-03-24T08:55:17;98735.41;;;20.95;46.99
78573;BME280;67862;0.000;0.000;2023-03-24T08:57:43;98728.78;;;21.14;47.89
78573;BME280;67862;0.000;0.000;2023-03-24T09:00:09;98720.47;;;21.06;46.76
78573;BME280;67862;0.000;0.000;2023-03-24T09:02:39;98724.72;;;21.12;46.83
78573;BME280;67862;0.000;0.000;2023-03-24T09:05:06;98719.53;;;21.29;48.07
78573;BME280;67862;0.000;0.000;2023-03-24T09:07:31;98709.13;;;21.31;46.48
78573;BME280;67862;0.000;0.000;2023-03-24T09:09:56;98714.81;;;21.35;47.99
78573;BME280;67862;0.000;0.000;2023-03-24T09:12:22;98711.00;;;21.17;45.41
78573;BME280;67862;0.000;0.000;2023-03-24T09:14:48;98711.81;;;21.18;46.63
78573;BME280;67862;0.000;0.000;2023-03-24T09:17:14;98712.69;;;21.13;45.77
78573;BME280;67862;0.000;0.000;2023-03-24T09:19:40;98710.09;;;21.22;47.44
78573;BME280;67862;0.000;0.000;2023-03-24T09:22:05;98708.97;;;21.09;45.68
78573;BME280;67862;0.000;0.000;2023-03-24T09:24:31;98715.09;;;21.01;44.43
78573;BME280;67862;0.000;0.000;2023-03-24T09:26:56;98707.50;;;20.98;44.96
78573;BME280;67862;0.000;0.000;2023-03-24T09:29:24;98706.22;;;21.09;44.67
78573;BME280;67862;0.000;0.000;2023-03-24T09:31:55;98708.88;;;21.14;46.07
78573;BME280;67862;0.000;0.000;2023-03-24T09:34:31;98710.06;;;21.08;44.17
78573;BME280;67862;0.000;0.000;2023-03-24T09:42:41;98698.22;;;20.99;43.49
78573;BME280;67862;0.000;0.000;2023-03-24T09:45:16;98699.47;;;21.06;43.79
78573;BME280;67862;0.000;0.000;2023-03-24T09:50:56;98695.50;;;20.99;43.08
78573;BME280;67862;0.000;0.000;2023-03-24T09:53:36;98682.66;;;20.99;42.21
78573;BME280;67862;0.000;0.000;2023-03-24T09:56:16;98683.25;;;20.96;42.09
78573;BME280;67862;0.000;0.000;2023-03-24T10:01:33;98684.88;;;20.97;41.83
78573;BME280;67862;0.000;0.000;2023-03-24T10:03:59;98676.38;;;20.85;40.87
78573;BME280;67862;0.000;0.000;2023-03-24T10:06:26;98671.53;;;20.96;42.08
78573;BME280;67862;0.000;0.000;2023-03-24T10:08:57;98676.00;;;21.05;42.00
78573;BME280;67862;0.000;0.000;2023-03-24T10:11:28;98666.47;;;21.03;41.48
78573;BME280;67862;0.000;0.000;2023-03-24T10:14:12;98663.47;;;21.04;41.93
78573;BME280;67862;0.000;0.000;2023-03-24T10:19:37;98665.22;;;21.14;42.53
78573;BME280;67862;0.000;0.000;2023-03-24T10:29:51;98646.31;;;21.18;42.23
78573;BME280;67862;0.000;0.000;2023-03-24T10:32:20;98644.47;;;21.13;42.52
78573;BME280;67862;0.000;0.000;2023-03-24T10:34:48;98644.88;;;21.20;42.40
78573;BME280;67862;0.000;0.000;2023-03-24T10:37:16;98639.34;;;21.25;42.78
78573;BME280;67862;0.000;0.000;2023-03-24T10:39:42;98649.06;;;21.31;43.21
78573;BME280;67862;0.000;0.000;2023-03-24T10:42:15;98649.28;;;21.35;43.22
78573;BME280;67862;0.000;0.000;2023-03-24T10:44:42;98644.31;;;21.37;42.56
78573;BME280;67862;0.000;0.000;2023-03-24T10:47:08;98632.47;;;21.41;43.02
78573;BME280;67862;0.000;0.000;2023-03-24T10:49:36;98632.91;;;21.35;41.24
78573;BME280;67862;0.000;0.000;2023-03-24T10:52:04;98626.03;;;21.37;41.84
78573;BME280;67862;0.000;0.000;2023-03-24T11:06:34;98602.16;;;21.29;39.30
78573;BME280;67862;0.000;0.000;2023-03-24T11:11:43;98598.53;;;21.34;37.37
78573;BME280;67862;0.000;0.000;2023-03-24T11:14:27;98611.16;;;21.43;37.43
78573;BME280;67862;0.000;0.000;2023-03-24T11:17:01;98612.97;;;21.34;36.75
78573;BME280;67862;0.000;0.000;2023-03-24T11:19:27;98599.66;;;21.33;35.91
78573;BME280;67862;0.000;0.000;2023-03-24T11:21:55;98592.75;;;21.35;36.17
78573;BME280;67862;0.000;0.000;2023-03-24T11:24:23;98594.88;;;21.38;35.69
78573;BME280;67862;0.000;0.000;2023-03-24T11:26:55;98588.28;;;21.39;36.23
78573;BME280;67862;0.000;0.000;2023-03-24T11:29:24;98589.22;;;21.35;35.79
78573;BME280;67862;0.000;0.000;2023-03-24T11:31:59;98584.66;;;21.30;34.25
78573;BME280;67862;0.000;0.000;2023-03-24T11:34:38;98579.69;;;21.46;35.22
78573;BME280;67862;0.000;0.000;2023-03-24T11:37:27;98583.44;;;21.50;35.14
78573;BME280;67862;0.000;0.000;2023-03-24T11:42:41;98572.28;;;21.60;35.81
78573;BME280;67862;0.000;0.000;2023-03-24T11:47:56;98549.63;;;21.60;36.20
78573;BME280;67862;0.000;0.000;2023-03-24T11:50:29;98554.38;;;21.68;37.30
78573;BME280;67862;0.000;0.000;2023-03-24T11:53:17;98554.28;;;21.73;38.53
78573;BME280;67862;0.000;0.000;2023-03-24T11:55:42;98539.19;;;21.76;39.17
78573;BME280;67862;0.000;0.000;2023-03-24T12:00:47;98532.28;;;21.78;39.86
78573;BME280;67862;0.000;0.000;2023-03-24T12:11:13;98526.97;;;21.95;41.09
78573;BME280;67862;0.000;0.000;2023-03-24T12:13:41;98522.78;;;21.98;41.48
78573;BME280;67862;0.000;0.000;2023-03-24T12:16:29;98519.97;;;22.03;41.98
78573;BME280;67862;0.000;0.000;2023-03-24T12:26:35;98505.59;;;21.97;43.09
78573;BME280;67862;0.000;0.000;2023-03-24T12:29:06;98500.59;;;21.91;43.52
78573;BME280;67862;0.000;0.000;2023-03-24T12:31:45;98498.44;;;21.88;43.52
78573;BME280;67862;0.000;0.000;2023-03-24T12:34:24;98502.63;;;21.85;43.57
78573;BME280;67862;0.000;0.000;2023-03-24T12:36:58;98486.22;;;21.85;43.48
78573;BME280;67862;0.000;0.000;2023-03-24T12:39:29;98489.44;;;21.87;43.37
78573;BME280;67862;0.000;0.000;2023-03-24T12:42:08;98490.56;;;21.86;43.55
78573;BME280;67862;0.000;0.000;2023-03-24T12:47:27;98483.19;;;21.87;43.90
78573;BME280;67862;0.000;0.000;2023-03-24T12:50:02;98482.69;;;21.85;44.44
78573;BME280;67862;0.000;0.000;2023-03-24T12:57:50;98468.72;;;21.86;44.62
78573;BME280;67862;0.000;0.000;2023-03-24T13:02:46;98450.38;;;21.87;45.05
78573;BME280;67862;0.000;0.000;2023-03-24T13:05:17;98464.84;;;21.87;45.12
78573;BME280;67862;0.000;0.000;2023-03-24T13:07:45;98455.84;;;21.87;45.00
78573;BME280;67862;0.000;0.000;2023-03-24T13:10:25;98453.94;;;21.87;45.13
78573;BME280;67862;0.000;0.000;2023-03-24T13:15:23;98456.97;;;22.08;45.09
78573;BME280;67862;0.000;0.000;2023-03-24T13:20:25;98436.13;;;22.12;37.83
78573;BME280;67862;0.000;0.000;2023-03-24T13:22:52;98446.84;;;22.09;36.54
78573;BME280;67862;0.000;0.000;2023-03-24T13:25:27;98444.44;;;22.07;35.74
78573;BME280;67862;0.000;0.000;2023-03-24T13:27:54;98433.38;;;22.12;34.63
78573;BME280;67862;0.000;0.000;2023-03-24T13:30:30;98434.72;;;22.23;33.73
78573;BME280;67862;0.000;0.000;2023-03-24T13:33:15;98432.34;;;22.31;33.97
78573;BME280;67862;0.000;0.000;2023-03-24T13:38:30;98421.88;;;22.24;33.95
78573;BME280;67862;0.000;0.000;2023-03-24T13:40:59;98413.78;;;22.19;33.16
78573;BME280;67862;0.000;0.000;2023-03-24T13:43:30;98416.22;;;22.20;33.79
78573;BME280;67862;0.000;0.000;2023-03-24T13:45:58;98424.22;;;22.17;33.49
78573;BME280;67862;0.000;0.000;2023-03-24T13:50:57;98401.13;;;22.23;33.18
78573;BME280;67862;0.000;0.000;2023-03-24T13:53:34;98404.81;;;22.27;33.17
78573;BME280;67862;0.000;0.000;2023-03-24T13:56:00;98401.97;;;22.32;33.04
78573;BME280;67862;0.000;0.000;2023-03-24T13:58:42;98399.19;;;22.23;33.15
78573;BME280;67862;0.000;0.000;2023-03-24T14:06:03;98396.78;;;21.99;33.53
78573;BME280;67862;0.000;0.000;2023-03-24T14:11:00;98387.03;;;22.07;33.58
78573;BME280;67862;0.000;0.000;2023-03-24T14:13:45;98391.25;;;22.13;33.27
78573;BME280;67862;0.000;0.000;2023-03-24T14:19:17;98382.44;;;22.16;33.60
78573;BME280;67862;0.000;0.000;2023-03-24T14:21:43;98376.16;;;22.16;32.95
78573;BME280;67862;0.000;0.000;2023-03-24T14:24:15;98372.78;;;22.19;32.41
78573;BME280;67862;0.000;0.000;2023-03-24T14:26:45;98367.53;;;22.31;32.65
78573;BME280;67862;0.000;0.000;2023-03-24T14:32:11;98363.06;;;22.44;32.64
78573;BME280;67862;0.000;0.000;2023-03-24T14:34:39;98357.78;;;22.47;32.60
78573;BME280;67862;0.000;0.000;2023-03-24T14:37:14;98344.09;;;22.47;32.95
78573;BME280;67862;0.000;0.000;2023-03-24T14:39:42;98354.22;;;22.47;33.95
78573;BME280;67862;0.000;0.000;2023-03-24T14:44:53;98359.25;;;22.53;32.68
78573;BME280;67862;0.000;0.000;2023-03-24T14:47:22;98361.16;;;22.44;32.77
78573;BME280;67862;0.000;0.000;2023-03-24T14:49:53;98354.09;;;22.52;32.55
78573;BME280;67862;0.000;0.000;2023-03-24T14:52:22;98343.81;;;22.49;32.24
78573;BME280;67862;0.000;0.000;2023-03-24T14:54:56;98342.31;;;22.43;31.76
78573;BME280;67862;0.000;0.000;2023-03-24T14:57:23;98353.38;;;22.29;32.36
78573;BME280;67862;0.000;0.000;2023-03-24T15:02:42;98353.44;;;22.07;31.95
78573;BME280;67862;0.000;0.000;2023-03-24T15:05:28;98346.47;;;22.00;32.44
78573;BME280;67862;0.000;0.000;2023-03-24T15:16:05;98336.81;;;21.94;34.25
78573;BME280;67862;0.000;0.000;2023-03-24T15:18:33;98330.03;;;21.92;35.09
78573;BME280;67862;0.000;0.000;2023-03-24T15:20:59;98336.44;;;21.87;33.61
78573;BME280;67862;0.000;0.000;2023-03-24T15:23:25;98333.84;;;21.82;33.73
78573;BME280;67862;0.000;0.000;2023-03-24T15:25:52;98332.56;;;21.88;33.84
78573;BME280;67862;0.000;0.000;2023-03-24T15:28:20;98320.84;;;21.88;33.01
78573;BME280;67862;0.000;0.000;2023-03-24T15:30:47;98328.72;;;21.89;33.66
78573;BME280;67862;0.000;0.000;2023-03-24T15:33:12;98325.38;;;21.92;34.32
78573;BME280;67862;0.000;0.000;2023-03-24T15:35:39;98323.78;;;21.91;33.31
78573;BME280;67862;0.000;0.000;2023-03-24T15:38:05;98327.13;;;21.88;33.48
78573;BME280;67862;0.000;0.000;2023-03-24T15:42:57;98311.47;;;21.80;34.52
78573;BME280;67862;0.000;0.000;2023-03-24T15:47:49;98317.22;;;21.70;34.56
78573;BME280;67862;0.000;0.000;2023-03-24T15:53:29;98318.47;;;21.64;35.38
78573;BME280;67862;0.000;0.000;2023-03-24T15:55:45;98318.34;;;21.69;35.75
78573;BME280;67862;0.000;0.000;2023-03-24T15:58:41;98315.13;;;21.67;36.05
78573;BME280;67862;0.000;0.000;2023-03-24T16:00:57;98318.66;;;21.67;36.58
78573;BME280;67862;0.000;0.000;2023-03-24T16:03:23;98316.41;;;21.69;36.83
78573;BME280;67862;0.000;0.000;2023-03-24T16:05:53;98309.03;;;21.70;37.30
78573;BME280;67862;0.000;0.000;2023-03-24T16:08:31;98310.63;;;21.71;36.37